sensor_id;sensor_type;location;lat;lon;timestamp;pressure;altitude;pressure_sealevel;temperature;humidity
73516;BME280;61763;51.416;5.442;2022-11-20T00:02:14;101239.81;;;-2.76;100.00
73516;BME280;61763;51.416;5.442;2022-11-20T00:04:39;101244.09;;;-2.88;100.00
73516;BME280;61763;51.416;5.442;2022-11-20T00:07:06;101243.09;;;-2.96;100.00
73516;BME280;61763;51.416;5.442;2022-11-20T00:09:33;101237.75;;;-3.02;100.00
73516;BME280;61763;51.416;5.442;2022-11-20T00:11:59;101234.13;;;-3.13;100.00
73516;BME280;61763;51.416;5.442;2022-11-20T00:14:26;101237.56;;;-3.21;100.00
73516;BME280;61763;51.416;5.442;2022-11-20T00:16:52;101239.25;;;-3.24;100.00
73516;BME280;61763;51.416;5.442;2022-11-20T00:19:17;101240.09;;;-3.27;100.00
73516;BME280;61763;51.416;5.442;2022-11-20T00:21:42;101242.81;;;-3.22;100.00
73516;BME280;61763;51.416;5.442;2022-11-20T00:24:08;101232.34;;;-3.13;100.00
73516;BME280;61763;51.416;5.442;2022-11-20T00:26:35;101223.63;;;-3.07;100.00
73516;BME280;61763;51.416;5.442;2022-11-20T00:29:00;101226.22;;;-3.10;100.00
73516;BME280;61763;51.416;5.442;2022-11-20T00:31:26;101222.06;;;-2.90;100.00
73516;BME280;61763;51.416;5.442;2022-11-20T00:33:53;101220.09;;;-3.06;100.00
73516;BME280;61763;51.416;5.442;2022-11-20T00:36:20;101227.22;;;-2.99;100.00
73516;BME280;61763;51.416;5.442;2022-11-20T00:38:46;101219.13;;;-3.16;100.00
73516;BME280;61763;51.416;5.442;2022-11-20T00:41:14;101231.34;;;-3.23;100.00
73516;BME280;61763;51.416;5.442;2022-11-20T00:43:40;101232.16;;;-3.28;100.00
73516;BME280;61763;51.416;5.442;2022-11-20T00:46:08;101238.34;;;-3.26;100.00
73516;BME280;61763;51.416;5.442;2022-11-20T00:48:34;101227.75;;;-3.31;100.00
73516;BME280;61763;51.416;5.442;2022-11-20T00:51:00;101224.22;;;-3.28;100.00
73516;BME280;61763;51.416;5.442;2022-11-20T00:53:25;101229.59;;;-3.24;100.00
73516;BME280;61763;51.416;5.442;2022-11-20T00:56:02;101226.97;;;-3.22;100.00
73516;BME280;61763;51.416;5.442;2022-11-20T00:58:31;101219.91;;;-3.23;100.00
73516;BME280;61763;51.416;5.442;2022-11-20T01:01:19;101220.66;;;-3.35;100.00
73516;BME280;61763;51.416;5.442;2022-11-20T01:03:47;101222.31;;;-3.40;100.00
73516;BME280;61763;51.416;5.442;2022-11-20T01:06:18;101223.19;;;-3.44;100.00
73516;BME280;61763;51.416;5.442;2022-11-20T01:08:44;101222.28;;;-3.45;100.00
73516;BME280;61763;51.416;5.442;2022-11-20T01:11:13;101228.44;;;-3.44;100.00
73516;BME280;61763;51.416;5.442;2022-11-20T01:13:39;101224.91;;;-3.45;100.00
73516;BME280;61763;51.416;5.442;2022-11-20T01:16:11;101225.03;;;-3.37;100.00
73516;BME280;61763;51.416;5.442;2022-11-20T01:18:39;101227.81;;;-3.25;100.00
73516;BME280;61763;51.416;5.442;2022-11-20T01:21:07;101233.25;;;-3.11;100.00
73516;BME280;61763;51.416;5.442;2022-11-20T01:23:34;101233.44;;;-2.97;100.00
73516;BME280;61763;51.416;5.442;2022-11-20T01:26:02;101233.59;;;-2.80;100.00
73516;BME280;61763;51.416;5.442;2022-11-20T01:28:28;101224.09;;;-2.62;100.00
73516;BME280;61763;51.416;5.442;2022-11-20T01:30:53;101217.16;;;-2.51;100.00
73516;BME280;61763;51.416;5.442;2022-11-20T01:33:19;101226.97;;;-2.39;100.00
73516;BME280;61763;51.416;5.442;2022-11-20T01:35:44;101214.00;;;-2.08;100.00
73516;BME280;61763;51.416;5.442;2022-11-20T01:38:09;101215.00;;;-1.91;100.00
73516;BME280;61763;51.416;5.442;2022-11-20T01:40:35;101214.16;;;-1.84;100.00
73516;BME280;61763;51.416;5.442;2022-11-20T01:43:17;101206.22;;;-1.84;100.00
73516;BME280;61763;51.416;5.442;2022-11-20T01:46:16;101218.56;;;-1.86;100.00
73516;BME280;61763;51.416;5.442;2022-11-20T01:48:44;101221.19;;;-1.89;100.00
73516;BME280;61763;51.416;5.442;2022-11-20T01:51:38;101221.19;;;-1.89;100.00
73516;BME280;61763;51.416;5.442;2022-11-20T01:54:04;101224.75;;;-1.87;100.00
73516;BME280;61763;51.416;5.442;2022-11-20T01:56:34;101226.50;;;-1.84;100.00
73516;BME280;61763;51.416;5.442;2022-11-20T01:59:04;101226.50;;;-1.81;100.00
73516;BME280;61763;51.416;5.442;2022-11-20T02:01:30;101219.50;;;-1.74;100.00
73516;BME280;61763;51.416;5.442;2022-11-20T02:03:56;101212.47;;;-1.72;100.00
73516;BME280;61763;51.416;5.442;2022-11-20T02:06:26;101216.88;;;-1.70;100.00
73516;BME280;61763;51.416;5.442;2022-11-20T02:08:54;101213.38;;;-1.72;100.00
73516;BME280;61763;51.416;5.442;2022-11-20T02:11:19;101207.16;;;-1.76;100.00
73516;BME280;61763;51.416;5.442;2022-11-20T02:13:45;101203.59;;;-1.82;100.00
73516;BME280;61763;51.416;5.442;2022-11-20T02:16:14;101212.38;;;-1.88;100.00
73516;BME280;61763;51.416;5.442;2022-11-20T02:18:41;101210.56;;;-1.92;100.00
73516;BME280;61763;51.416;5.442;2022-11-20T02:21:13;101204.41;;;-1.91;100.00
73516;BME280;61763;51.416;5.442;2022-11-20T02:24:12;101202.66;;;-1.87;100.00
73516;BME280;61763;51.416;5.442;2022-11-20T02:29:10;101207.22;;;-1.68;100.00
73516;BME280;61763;51.416;5.442;2022-11-20T02:31:37;101201.94;;;-1.62;100.00
73516;BME280;61763;51.416;5.442;2022-11-20T02:34:03;101198.47;;;-1.53;100.00
73516;BME280;61763;51.416;5.442;2022-11-20T02:36:30;101194.97;;;-1.46;100.00
73516;BME280;61763;51.416;5.442;2022-11-20T02:38:57;101195.88;;;-1.39;100.00
73516;BME280;61763;51.416;5.442;2022-11-20T02:41:30;101200.31;;;-1.36;100.00
73516;BME280;61763;51.416;5.442;2022-11-20T02:43:56;101196.81;;;-1.32;100.00
73516;BME280;61763;51.416;5.442;2022-11-20T02:46:21;101195.03;;;-1.30;100.00
73516;BME280;61763;51.416;5.442;2022-11-20T02:48:46;101197.69;;;-1.29;100.00
73516;BME280;61763;51.416;5.442;2022-11-20T02:51:12;101199.47;;;-1.29;100.00
73516;BME280;61763;51.416;5.442;2022-11-20T02:53:37;101196.81;;;-1.28;100.00
73516;BME280;61763;51.416;5.442;2022-11-20T02:56:03;101197.69;;;-1.24;100.00
73516;BME280;61763;51.416;5.442;2022-11-20T02:58:28;101202.13;;;-1.20;100.00
73516;BME280;61763;51.416;5.442;2022-11-20T03:00:54;101195.06;;;-1.16;100.00
73516;BME280;61763;51.416;5.442;2022-11-20T03:03:19;101192.41;;;-1.18;100.00
73516;BME280;61763;51.416;5.442;2022-11-20T03:05:44;101194.19;;;-1.17;100.00
73516;BME280;61763;51.416;5.442;2022-11-20T03:08:10;101188.88;;;-1.20;100.00
73516;BME280;61763;51.416;5.442;2022-11-20T03:10:35;101191.56;;;-1.15;100.00
73516;BME280;61763;51.416;5.442;2022-11-20T03:13:00;101197.72;;;-1.18;100.00
73516;BME280;61763;51.416;5.442;2022-11-20T03:15:26;101194.22;;;-1.12;100.00
73516;BME280;61763;51.416;5.442;2022-11-20T03:17:54;101189.81;;;-1.10;100.00
73516;BME280;61763;51.416;5.442;2022-11-20T03:20:20;101183.66;;;-1.04;100.00
73516;BME280;61763;51.416;5.442;2022-11-20T03:22:46;101184.53;;;-1.07;100.00
73516;BME280;61763;51.416;5.442;2022-11-20T03:25:11;101173.03;;;-1.06;100.00
73516;BME280;61763;51.416;5.442;2022-11-20T03:27:36;101180.09;;;-1.05;100.00
73516;BME280;61763;51.416;5.442;2022-11-20T03:30:02;101172.16;;;-1.05;100.00
73516;BME280;61763;51.416;5.442;2022-11-20T03:32:28;101164.22;;;-1.07;100.00
73516;BME280;61763;51.416;5.442;2022-11-20T03:34:53;101164.22;;;-1.08;100.00
73516;BME280;61763;51.416;5.442;2022-11-20T03:37:19;101168.63;;;-1.12;100.00
73516;BME280;61763;51.416;5.442;2022-11-20T03:39:44;101162.44;;;-1.06;100.00
73516;BME280;61763;51.416;5.442;2022-11-20T03:42:09;101160.69;;;-1.10;100.00
73516;BME280;61763;51.416;5.442;2022-11-20T03:44:55;101157.13;;;-1.12;100.00
73516;BME280;61763;51.416;5.442;2022-11-20T03:47:20;101159.78;;;-1.12;100.00
73516;BME280;61763;51.416;5.442;2022-11-20T03:49:46;101159.78;;;-1.11;100.00
73516;BME280;61763;51.416;5.442;2022-11-20T03:52:11;101148.31;;;-1.11;100.00
73516;BME280;61763;51.416;5.442;2022-11-20T03:54:36;101151.81;;;-1.12;100.00
73516;BME280;61763;51.416;5.442;2022-11-20T03:57:02;101155.38;;;-1.15;100.00
73516;BME280;61763;51.416;5.442;2022-11-20T03:59:27;101153.63;;;-1.07;100.00
73516;BME280;61763;51.416;5.442;2022-11-20T04:01:52;101142.13;;;-1.12;100.00
73516;BME280;61763;51.416;5.442;2022-11-20T04:04:18;101138.59;;;-1.12;100.00
73516;BME280;61763;51.416;5.442;2022-11-20T04:06:43;101138.59;;;-1.14;100.00
73516;BME280;61763;51.416;5.442;2022-11-20T04:09:09;101133.28;;;-1.15;100.00
73516;BME280;61763;51.416;5.442;2022-11-20T04:11:39;101143.00;;;-1.16;100.00
73516;BME280;61763;51.416;5.442;2022-11-20T04:14:06;101145.66;;;-1.16;100.00
73516;BME280;61763;51.416;5.442;2022-11-20T04:16:36;101145.66;;;-1.16;100.00
73516;BME280;61763;51.416;5.442;2022-11-20T04:19:04;101136.84;;;-1.15;100.00
73516;BME280;61763;51.416;5.442;2022-11-20T04:21:30;101143.88;;;-1.12;100.00
73516;BME280;61763;51.416;5.442;2022-11-20T04:23:56;101140.38;;;-1.11;100.00
73516;BME280;61763;51.416;5.442;2022-11-20T04:26:23;101141.25;;;-1.09;100.00
73516;BME280;61763;51.416;5.442;2022-11-20T04:28:49;101150.09;;;-1.10;100.00
73516;BME280;61763;51.416;5.442;2022-11-20T04:31:17;101141.25;;;-1.09;100.00
73516;BME280;61763;51.416;5.442;2022-11-20T04:33:44;101145.66;;;-1.08;100.00
73516;BME280;61763;51.416;5.442;2022-11-20T04:36:22;101147.44;;;-1.02;100.00
73516;BME280;61763;51.416;5.442;2022-11-20T04:38:55;101143.03;;;-0.97;100.00
73516;BME280;61763;51.416;5.442;2022-11-20T04:41:22;101143.03;;;-0.96;100.00
73516;BME280;61763;51.416;5.442;2022-11-20T04:43:50;101140.38;;;-0.96;100.00
73516;BME280;61763;51.416;5.442;2022-11-20T04:46:16;101135.06;;;-0.96;100.00
73516;BME280;61763;51.416;5.442;2022-11-20T04:48:42;101135.97;;;-0.92;100.00
73516;BME280;61763;51.416;5.442;2022-11-20T04:51:08;101136.84;;;-0.89;100.00
73516;BME280;61763;51.416;5.442;2022-11-20T04:53:33;101136.84;;;-0.92;100.00
73516;BME280;61763;51.416;5.442;2022-11-20T04:56:00;101133.34;;;-0.94;100.00
73516;BME280;61763;51.416;5.442;2022-11-20T04:58:26;101136.00;;;-0.91;100.00
73516;BME280;61763;51.416;5.442;2022-11-20T05:00:51;101124.47;;;-0.96;100.00
73516;BME280;61763;51.416;5.442;2022-11-20T05:03:16;101129.81;;;-0.93;100.00
73516;BME280;61763;51.416;5.442;2022-11-20T05:05:42;101121.88;;;-0.93;100.00
73516;BME280;61763;51.416;5.442;2022-11-20T05:08:07;101118.31;;;-0.90;100.00
73516;BME280;61763;51.416;5.442;2022-11-20T05:10:32;101120.09;;;-0.91;100.00
73516;BME280;61763;51.416;5.442;2022-11-20T05:12:58;101112.13;;;-0.75;100.00
73516;BME280;61763;51.416;5.442;2022-11-20T05:15:23;101111.25;;;-0.74;100.00
73516;BME280;61763;51.416;5.442;2022-11-20T05:17:49;101102.44;;;-0.82;100.00
73516;BME280;61763;51.416;5.442;2022-11-20T05:20:15;101104.19;;;-0.83;100.00
73516;BME280;61763;51.416;5.442;2022-11-20T05:22:41;101101.53;;;-0.80;100.00
73516;BME280;61763;51.416;5.442;2022-11-20T05:25:07;101097.13;;;-0.78;100.00
73516;BME280;61763;51.416;5.442;2022-11-20T05:27:32;101097.13;;;-0.75;100.00
73516;BME280;61763;51.416;5.442;2022-11-20T05:29:57;101102.44;;;-0.70;100.00
73516;BME280;61763;51.416;5.442;2022-11-20T05:32:22;101090.97;;;-0.71;100.00
73516;BME280;61763;51.416;5.442;2022-11-20T05:34:51;101101.56;;;-0.64;100.00
73516;BME280;61763;51.416;5.442;2022-11-20T05:37:16;101093.59;;;-0.58;100.00
73516;BME280;61763;51.416;5.442;2022-11-20T05:39:41;101092.72;;;-0.59;100.00
73516;BME280;61763;51.416;5.442;2022-11-20T05:42:07;101092.72;;;-0.56;100.00
73516;BME280;61763;51.416;5.442;2022-11-20T05:44:51;101098.03;;;-0.54;100.00
73516;BME280;61763;51.416;5.442;2022-11-20T05:47:16;101097.13;;;-0.50;100.00
73516;BME280;61763;51.416;5.442;2022-11-20T05:49:41;101111.25;;;-0.42;100.00
73516;BME280;61763;51.416;5.442;2022-11-20T05:52:07;101117.44;;;-0.43;100.00
73516;BME280;61763;51.416;5.442;2022-11-20T05:54:32;101116.56;;;-0.42;100.00
73516;BME280;61763;51.416;5.442;2022-11-20T05:56:57;101114.78;;;-0.44;100.00
73516;BME280;61763;51.416;5.442;2022-11-20T05:59:23;101118.34;;;-0.47;100.00
73516;BME280;61763;51.416;5.442;2022-11-20T06:01:48;101128.94;;;-0.48;100.00
73516;BME280;61763;51.416;5.442;2022-11-20T06:04:13;101131.59;;;-0.45;100.00
73516;BME280;61763;51.416;5.442;2022-11-20T06:06:39;101136.03;;;-0.37;100.00
73516;BME280;61763;51.416;5.442;2022-11-20T06:09:04;101134.25;;;-0.38;100.00
73516;BME280;61763;51.416;5.442;2022-11-20T06:11:29;101133.38;;;-0.37;100.00
73516;BME280;61763;51.416;5.442;2022-11-20T06:13:55;101130.72;;;-0.40;100.00
73516;BME280;61763;51.416;5.442;2022-11-20T06:16:20;101134.25;;;-0.41;100.00
73516;BME280;61763;51.416;5.442;2022-11-20T06:18:47;101132.47;;;-0.29;100.00
73516;BME280;61763;51.416;5.442;2022-11-20T06:21:17;101123.63;;;-0.28;100.00
73516;BME280;61763;51.416;5.442;2022-11-20T06:23:43;101123.63;;;-0.31;100.00
73516;BME280;61763;51.416;5.442;2022-11-20T06:26:11;101120.97;;;-0.19;100.00
73516;BME280;61763;51.416;5.442;2022-11-20T06:28:37;101117.41;;;-0.18;100.00
73516;BME280;61763;51.416;5.442;2022-11-20T06:31:04;101126.25;;;-0.25;100.00
73516;BME280;61763;51.416;5.442;2022-11-20T06:33:30;101126.25;;;-0.25;100.00
73516;BME280;61763;51.416;5.442;2022-11-20T06:35:59;101125.38;;;-0.23;100.00
73516;BME280;61763;51.416;5.442;2022-11-20T06:38:26;101117.41;;;-0.20;100.00
73516;BME280;61763;51.416;5.442;2022-11-20T06:40:51;101116.53;;;-0.20;100.00
73516;BME280;61763;51.416;5.442;2022-11-20T06:43:16;101107.69;;;-0.10;100.00
73516;BME280;61763;51.416;5.442;2022-11-20T06:45:42;101105.03;;;-0.13;100.00
73516;BME280;61763;51.416;5.442;2022-11-20T06:48:08;101105.91;;;-0.14;100.00
73516;BME280;61763;51.416;5.442;2022-11-20T06:50:33;101097.09;;;-0.17;100.00
73516;BME280;61763;51.416;5.442;2022-11-20T06:53:02;101100.63;;;-0.15;100.00
73516;BME280;61763;51.416;5.442;2022-11-20T06:55:28;101099.72;;;-0.07;100.00
73516;BME280;61763;51.416;5.442;2022-11-20T06:57:54;101102.34;;;-0.05;100.00
73516;BME280;61763;51.416;5.442;2022-11-20T07:00:19;101102.38;;;-0.10;100.00
73516;BME280;61763;51.416;5.442;2022-11-20T07:02:44;101103.25;;;-0.06;100.00
73516;BME280;61763;51.416;5.442;2022-11-20T07:05:10;101103.25;;;-0.11;100.00
73516;BME280;61763;51.416;5.442;2022-11-20T07:07:35;101115.63;;;-0.10;100.00
73516;BME280;61763;51.416;5.442;2022-11-20T07:10:01;101107.66;;;-0.04;100.00
73516;BME280;61763;51.416;5.442;2022-11-20T07:12:26;101099.72;;;-0.07;100.00
73516;BME280;61763;51.416;5.442;2022-11-20T07:14:51;101094.34;;;0.06;100.00
73516;BME280;61763;51.416;5.442;2022-11-20T07:17:17;101094.34;;;0.09;100.00
73516;BME280;61763;51.416;5.442;2022-11-20T07:19:42;101091.72;;;0.12;100.00
73516;BME280;61763;51.416;5.442;2022-11-20T07:22:08;101089.94;;;0.12;100.00
73516;BME280;61763;51.416;5.442;2022-11-20T07:24:33;101100.50;;;0.23;100.00
73516;BME280;61763;51.416;5.442;2022-11-20T07:26:59;101093.41;;;0.21;100.00
73516;BME280;61763;51.416;5.442;2022-11-20T07:29:24;101098.75;;;0.25;100.00
73516;BME280;61763;51.416;5.442;2022-11-20T07:31:49;101096.09;;;0.14;100.00
73516;BME280;61763;51.416;5.442;2022-11-20T07:34:15;101091.63;;;0.29;100.00
73516;BME280;61763;51.416;5.442;2022-11-20T07:36:40;101093.44;;;0.22;100.00
73516;BME280;61763;51.416;5.442;2022-11-20T07:39:05;101090.81;;;0.07;100.00
73516;BME280;61763;51.416;5.442;2022-11-20T07:41:31;101093.44;;;0.14;100.00
73516;BME280;61763;51.416;5.442;2022-11-20T07:43:56;101089.94;;;0.08;100.00
73516;BME280;61763;51.416;5.442;2022-11-20T07:46:22;101094.34;;;0.09;100.00
73516;BME280;61763;51.416;5.442;2022-11-20T07:48:47;101082.81;;;0.21;100.00
73516;BME280;61763;51.416;5.442;2022-11-20T07:51:12;101095.22;;;0.15;100.00
73516;BME280;61763;51.416;5.442;2022-11-20T07:53:38;101093.44;;;0.19;100.00
73516;BME280;61763;51.416;5.442;2022-11-20T07:56:04;101098.72;;;0.21;100.00
73516;BME280;61763;51.416;5.442;2022-11-20T07:58:30;101096.00;;;0.42;100.00
73516;BME280;61763;51.416;5.442;2022-11-20T08:00:56;101099.50;;;0.52;100.00
73516;BME280;61763;51.416;5.442;2022-11-20T08:03:21;101093.28;;;0.59;100.00
73516;BME280;61763;51.416;5.442;2022-11-20T08:05:46;101099.38;;;0.74;100.00
73516;BME280;61763;51.416;5.442;2022-11-20T08:08:12;101100.28;;;0.73;99.09
73516;BME280;61763;51.416;5.442;2022-11-20T08:10:37;101101.16;;;0.70;99.41
73516;BME280;61763;51.416;5.442;2022-11-20T08:13:02;101091.41;;;0.74;99.95
73516;BME280;61763;51.416;5.442;2022-11-20T08:15:50;101094.03;;;0.83;99.31
73516;BME280;61763;51.416;5.442;2022-11-20T08:18:17;101096.59;;;0.95;98.82
73516;BME280;61763;51.416;5.442;2022-11-20T08:20:43;101084.19;;;0.97;98.34
73516;BME280;61763;51.416;5.442;2022-11-20T08:23:08;101090.38;;;0.96;98.98
73516;BME280;61763;51.416;5.442;2022-11-20T08:25:35;101084.06;;;1.11;98.53
73516;BME280;61763;51.416;5.442;2022-11-20T08:28:06;101092.09;;;1.07;99.80
73516;BME280;61763;51.416;5.442;2022-11-20T08:30:32;101091.19;;;1.04;99.79
73516;BME280;61763;51.416;5.442;2022-11-20T08:33:02;101087.69;;;1.01;100.00
73516;BME280;61763;51.416;5.442;2022-11-20T08:35:28;101095.59;;;1.12;100.00
73516;BME280;61763;51.416;5.442;2022-11-20T08:37:53;101097.31;;;1.17;100.00
73516;BME280;61763;51.416;5.442;2022-11-20T08:40:18;101093.72;;;1.23;100.00
73516;BME280;61763;51.416;5.442;2022-11-20T08:42:50;101096.38;;;1.25;100.00
73516;BME280;61763;51.416;5.442;2022-11-20T08:45:17;101087.53;;;1.26;100.00
73516;BME280;61763;51.416;5.442;2022-11-20T08:47:44;101080.31;;;1.40;100.00
73516;BME280;61763;51.416;5.442;2022-11-20T08:50:11;101091.91;;;1.33;100.00
73516;BME280;61763;51.416;5.442;2022-11-20T08:52:36;101090.03;;;1.43;100.00
73516;BME280;61763;51.416;5.442;2022-11-20T08:55:03;101081.13;;;1.47;100.00
73516;BME280;61763;51.416;5.442;2022-11-20T08:57:32;101079.19;;;1.64;100.00
73516;BME280;61763;51.416;5.442;2022-11-20T08:59:58;101080.09;;;1.62;100.00
73516;BME280;61763;51.416;5.442;2022-11-20T09:02:23;101091.50;;;1.76;100.00
73516;BME280;61763;51.416;5.442;2022-11-20T09:04:49;101085.28;;;1.75;100.00
73516;BME280;61763;51.416;5.442;2022-11-20T09:07:14;101081.72;;;1.77;100.00
73516;BME280;61763;51.416;5.442;2022-11-20T09:09:39;101085.06;;;1.96;100.00
73516;BME280;61763;51.416;5.442;2022-11-20T09:12:04;101072.72;;;1.90;100.00
73516;BME280;61763;51.416;5.442;2022-11-20T09:14:30;101074.47;;;1.92;100.00
73516;BME280;61763;51.416;5.442;2022-11-20T09:16:56;101070.97;;;1.87;100.00
73516;BME280;61763;51.416;5.442;2022-11-20T09:19:21;101073.56;;;1.95;100.00
73516;BME280;61763;51.416;5.442;2022-11-20T09:21:48;101069.03;;;2.00;100.00
73516;BME280;61763;51.416;5.442;2022-11-20T09:24:15;101063.72;;;2.03;100.00
73516;BME280;61763;51.416;5.442;2022-11-20T09:26:40;101058.38;;;2.03;100.00
73516;BME280;61763;51.416;5.442;2022-11-20T09:29:05;101058.31;;;2.09;100.00
73516;BME280;61763;51.416;5.442;2022-11-20T09:31:31;101051.75;;;2.35;100.00
73516;BME280;61763;51.416;5.442;2022-11-20T09:33:56;101043.03;;;2.24;100.00
73516;BME280;61763;51.416;5.442;2022-11-20T09:36:22;101047.38;;;2.33;100.00
73516;BME280;61763;51.416;5.442;2022-11-20T09:38:47;101037.47;;;2.41;100.00
73516;BME280;61763;51.416;5.442;2022-11-20T09:43:58;101028.72;;;2.33;100.00
73516;BME280;61763;51.416;5.442;2022-11-20T09:55:16;101016.94;;;2.51;100.00
73516;BME280;61763;51.416;5.442;2022-11-20T09:57:44;101025.78;;;2.53;100.00
73516;BME280;61763;51.416;5.442;2022-11-20T10:00:13;101021.94;;;2.71;100.00
73516;BME280;61763;51.416;5.442;2022-11-20T10:05:25;101003.19;;;2.80;100.00
73516;BME280;61763;51.416;5.442;2022-11-20T10:08:14;100994.88;;;2.98;100.00
73516;BME280;61763;51.416;5.442;2022-11-20T10:10:44;100983.44;;;2.92;100.00
73516;BME280;61763;51.416;5.442;2022-11-20T10:16:23;100956.69;;;2.96;100.00
73516;BME280;61763;51.416;5.442;2022-11-20T10:21:26;100941.94;;;3.25;100.00
73516;BME280;61763;51.416;5.442;2022-11-20T10:24:16;100939.66;;;3.54;99.27
73516;BME280;61763;51.416;5.442;2022-11-20T10:27:15;100934.69;;;3.79;96.40
73516;BME280;61763;51.416;5.442;2022-11-20T10:29:47;100940.22;;;3.68;97.81
73516;BME280;61763;51.416;5.442;2022-11-20T10:32:28;100952.03;;;3.56;98.00
73516;BME280;61763;51.416;5.442;2022-11-20T10:35:04;100943.97;;;3.61;97.79
73516;BME280;61763;51.416;5.442;2022-11-20T10:37:30;100939.00;;;3.41;98.36
73516;BME280;61763;51.416;5.442;2022-11-20T10:40:01;100925.41;;;3.53;99.22
73516;BME280;61763;51.416;5.442;2022-11-20T10:42:38;100930.56;;;3.64;98.36
73516;BME280;61763;51.416;5.442;2022-11-20T10:47:45;100907.56;;;3.57;99.18
73516;BME280;61763;51.416;5.442;2022-11-20T10:50:15;100905.56;;;3.66;98.74
73516;BME280;61763;51.416;5.442;2022-11-20T10:53:04;100901.81;;;3.75;99.28
73516;BME280;61763;51.416;5.442;2022-11-20T11:00:48;100880.88;;;3.97;98.28
73516;BME280;61763;51.416;5.442;2022-11-20T11:03:26;100881.16;;;3.85;98.69
73516;BME280;61763;51.416;5.442;2022-11-20T11:08:39;100882.97;;;3.84;99.67
73516;BME280;61763;51.416;5.442;2022-11-20T11:11:18;100881.22;;;3.82;100.00
73516;BME280;61763;51.416;5.442;2022-11-20T11:13:45;100877.69;;;3.81;100.00
73516;BME280;61763;51.416;5.442;2022-11-20T11:18:46;100863.47;;;3.79;100.00
73516;BME280;61763;51.416;5.442;2022-11-20T11:21:12;100861.56;;;3.86;100.00
73516;BME280;61763;51.416;5.442;2022-11-20T11:23:42;100864.38;;;3.78;100.00
73516;BME280;61763;51.416;5.442;2022-11-20T11:26:22;100866.88;;;3.88;100.00
73516;BME280;61763;51.416;5.442;2022-11-20T11:31:28;100858.34;;;3.70;100.00
73516;BME280;61763;51.416;5.442;2022-11-20T11:34:14;100854.00;;;3.66;100.00
73516;BME280;61763;51.416;5.442;2022-11-20T11:36:41;100854.03;;;3.64;100.00
73516;BME280;61763;51.416;5.442;2022-11-20T11:39:12;100853.00;;;3.70;100.00
73516;BME280;61763;51.416;5.442;2022-11-20T11:41:40;100847.66;;;3.72;100.00
73516;BME280;61763;51.416;5.442;2022-11-20T11:44:25;100841.94;;;3.87;100.00
73516;BME280;61763;51.416;5.442;2022-11-20T11:47:24;100834.72;;;3.92;100.00
73516;BME280;61763;51.416;5.442;2022-11-20T11:50:23;100837.09;;;4.04;100.00
73516;BME280;61763;51.416;5.442;2022-11-20T11:56:07;100816.88;;;3.94;100.00
73516;BME280;61763;51.416;5.442;2022-11-20T11:58:51;100812.22;;;4.02;100.00
73516;BME280;61763;51.416;5.442;2022-11-20T12:01:38;100806.88;;;4.02;100.00
73516;BME280;61763;51.416;5.442;2022-11-20T12:06:44;100790.00;;;4.02;100.00
73516;BME280;61763;51.416;5.442;2022-11-20T12:09:12;100782.22;;;3.91;100.00
73516;BME280;61763;51.416;5.442;2022-11-20T12:11:43;100771.31;;;4.00;100.00
73516;BME280;61763;51.416;5.442;2022-11-20T12:14:16;100779.31;;;4.02;100.00
73516;BME280;61763;51.416;5.442;2022-11-20T12:16:45;100766.59;;;4.12;100.00
73516;BME280;61763;51.416;5.442;2022-11-20T12:19:12;100759.44;;;4.14;100.00
73516;BME280;61763;51.416;5.442;2022-11-20T12:27:14;100730.38;;;4.36;100.00
73516;BME280;61763;51.416;5.442;2022-11-20T12:30:19;100728.66;;;4.33;100.00
73516;BME280;61763;51.416;5.442;2022-11-20T12:48:04;100706.75;;;4.53;100.00
73516;BME280;61763;51.416;5.442;2022-11-20T12:50:51;100698.59;;;4.58;100.00
73516;BME280;61763;51.416;5.442;2022-11-20T13:04:07;100663.78;;;4.91;100.00
73516;BME280;61763;51.416;5.442;2022-11-20T13:06:33;100649.66;;;4.87;100.00
73516;BME280;61763;51.416;5.442;2022-11-20T13:09:00;100653.75;;;4.99;100.00
73516;BME280;61763;51.416;5.442;2022-11-20T13:11:38;100643.66;;;5.07;100.00
73516;BME280;61763;51.416;5.442;2022-11-20T13:17:24;100637.78;;;4.96;100.00
73516;BME280;61763;51.416;5.442;2022-11-20T13:19:54;100626.16;;;4.97;100.00
73516;BME280;61763;51.416;5.442;2022-11-20T13:25:21;100618.56;;;4.83;100.00
73516;BME280;61763;51.416;5.442;2022-11-20T13:27:47;100606.94;;;4.84;100.00
73516;BME280;61763;51.416;5.442;2022-11-20T13:30:16;100602.88;;;5.01;100.00
73516;BME280;61763;51.416;5.442;2022-11-20T13:35:35;100595.53;;;5.07;100.00
73516;BME280;61763;51.416;5.442;2022-11-20T13:38:13;100586.34;;;5.16;100.00
73516;BME280;61763;51.416;5.442;2022-11-20T13:40:59;100573.91;;;5.14;100.00
73516;BME280;61763;51.416;5.442;2022-11-20T13:43:47;100569.00;;;5.28;100.00
73516;BME280;61763;51.416;5.442;2022-11-20T13:46:13;100572.03;;;5.17;100.00
73516;BME280;61763;51.416;5.442;2022-11-20T13:48:45;100564.88;;;5.18;100.00
73516;BME280;61763;51.416;5.442;2022-11-20T13:51:27;100568.53;;;5.15;100.00
73516;BME280;61763;51.416;5.442;2022-11-20T14:01:49;100542.81;;;5.11;100.00
73516;BME280;61763;51.416;5.442;2022-11-20T14:04:18;100544.75;;;5.06;100.00
73516;BME280;61763;51.416;5.442;2022-11-20T14:06:46;100534.53;;;5.19;100.00
73516;BME280;61763;51.416;5.442;2022-11-20T14:09:25;100533.50;;;5.23;100.00
73516;BME280;61763;51.416;5.442;2022-11-20T14:11:51;100521.22;;;5.17;100.00
73516;BME280;61763;51.416;5.442;2022-11-20T14:14:19;100516.34;;;5.30;100.00
73516;BME280;61763;51.416;5.442;2022-11-20T14:16:46;100509.47;;;5.21;100.00
73516;BME280;61763;51.416;5.442;2022-11-20T14:21:48;100514.56;;;5.02;100.00
73516;BME280;61763;51.416;5.442;2022-11-20T14:24:19;100512.06;;;4.98;100.00
73516;BME280;61763;51.416;5.442;2022-11-20T14:26:46;100503.44;;;4.88;100.00
73516;BME280;61763;51.416;5.442;2022-11-20T14:29:21;100502.16;;;5.00;100.00